Aikou Maru — JD3395 — position and weather

sailwx.info

Track history (hours):
 
Tides and Currents Weather Stations Pressure Air Temp Water Temp Dewpoint Dewpoint Depression Visibility Wind Speed Wind Dir Waves Ship Positions

Aikou Maru

Last reported at 2017-Sep-07 16:46 UTC. Time now 2017-Sep-22 09:56 UTC.
Position N 34°37' E 134°57'.
Warning: this ship's position is 14 days out of date.

Length 89 m; draft 5.1 m.

Type: Tanker. MMSI: 431003751.

Date/timePositionNaut miles runAvg speedWind from/ knotsBaromVisibWave heightAir tempDewpointWater temp
2017-Sep-07 16:46N 34°37' E 134°57'310.5
2017-Sep-07 16:29N 34°37' E 135°01'510.1
2017-Sep-07 16:00N 34°34' E 135°05'712.8
2017-Sep-07 15:29N 34°27' E 135°03'712.5
2017-Sep-07 14:56N 34°21' E 135°01'711.2
2017-Sep-07 14:18N 34°14' E 135°00'412.8
2017-Sep-07 14:00N 34°10' E 135°02'5 9.5
2017-Sep-07 13:28N 34°07' E 135°07'0 0.1
2017-Sep-07 13:00N 34°07' E 135°07'0 0.0
2017-Sep-07 12:30N 34°07' E 135°07'0 0.0
2017-Sep-07 11:59N 34°07' E 135°07'0 0.0
2017-Sep-07 11:30N 34°07' E 135°07'0 0.0
2017-Sep-07 11:00N 34°07' E 135°07'0 0.0
2017-Sep-07 10:30N 34°07' E 135°07'0 0.3
2017-Sep-07 09:23N 34°07' E 135°07'0 0.0
2017-Sep-07 08:59N 34°07' E 135°07'0 0.1
2017-Sep-07 05:30N 34°08' E 135°07'5 9.5
2017-Sep-07 05:00N 34°05' E 135°02'3 0.1
2017-Sep-05 15:30N 34°03' E 134°59'714.3
2017-Sep-05 15:00N 34°10' E 134°59'1314.2
2017-Sep-05 14:06N 34°23' E 135°00'314.6
2017-Sep-05 13:53N 34°26' E 135°01'614.2
2017-Sep-05 13:30N 34°31' E 135°03'511.2
2017-Sep-05 13:00N 34°37' E 135°01'  
Track history (hours):
 
Tides and Currents Weather Stations Pressure Air Temp Water Temp Dewpoint Dewpoint Depression Visibility Wind Speed Wind Dir Waves Ship Positions

Aikou Maru

Last reported at 2017-Sep-07 16:46 UTC. Time now 2017-Sep-22 09:56 UTC.
Position N 34°37' E 134°57'.
Warning: this ship's position is 14 days out of date.

Length 89 m; draft 5.1 m.

Type: Tanker. MMSI: 431003751.

Date/timePositionNaut miles runAvg speedWind from/ knotsBaromVisibWave heightAir tempDewpointWater temp
2017-Sep-07 16:46N 34°37' E 134°57'310.5
2017-Sep-07 16:29N 34°37' E 135°01'510.1
2017-Sep-07 16:00N 34°34' E 135°05'712.8
2017-Sep-07 15:29N 34°27' E 135°03'712.5
2017-Sep-07 14:56N 34°21' E 135°01'711.2
2017-Sep-07 14:18N 34°14' E 135°00'412.8
2017-Sep-07 14:00N 34°10' E 135°02'5 9.5
2017-Sep-07 13:28N 34°07' E 135°07'0 0.1
2017-Sep-07 13:00N 34°07' E 135°07'0 0.0
2017-Sep-07 12:30N 34°07' E 135°07'0 0.0
2017-Sep-07 11:59N 34°07' E 135°07'0 0.0
2017-Sep-07 11:30N 34°07' E 135°07'0 0.0
2017-Sep-07 11:00N 34°07' E 135°07'0 0.0
2017-Sep-07 10:30N 34°07' E 135°07'0 0.3
2017-Sep-07 09:23N 34°07' E 135°07'0 0.0
2017-Sep-07 08:59N 34°07' E 135°07'0 0.1
2017-Sep-07 05:30N 34°08' E 135°07'5 9.5
2017-Sep-07 05:00N 34°05' E 135°02'3 0.1
2017-Sep-05 15:30N 34°03' E 134°59'714.3
2017-Sep-05 15:00N 34°10' E 134°59'1314.2
2017-Sep-05 14:06N 34°23' E 135°00'314.6
2017-Sep-05 13:53N 34°26' E 135°01'614.2
2017-Sep-05 13:30N 34°31' E 135°03'511.2
2017-Sep-05 13:00N 34°37' E 135°01'  

Dump ship's entire track history